Time;durP1;ratioP1;P1;durP2;ratioP2;P2;SDS_P1;SDS_P2;PMS_P1;PMS_P2;Temp;Humidity;BMP_temperature;BMP_pressure;BME280_temperature;BME280_humidity;BME280_pressure;Samples;Min_cycle;Max_cycle;Signal;HPM_P1;HPM_P2
2023/05/07 00:01:02;;;;;;;52.72;48.83;;;12.70;99.90;;;;;;4985753;28;20105;-72
2023/05/07 00:03:28;;;;;;;60.92;56.40;;;12.70;99.90;;;;;;4985263;28;20047;-72
2023/05/07 00:05:54;;;;;;;64.18;59.45;;;12.70;99.90;;;;;;4969346;28;20047;-72
2023/05/07 00:08:20;;;;;;;58.38;54.15;;;12.70;99.90;;;;;;4984840;28;20372;-72
2023/05/07 00:10:46;;;;;;;63.03;58.13;;;12.60;99.90;;;;;;4985846;28;20048;-72
2023/05/07 00:13:12;;;;;;;59.88;55.30;;;12.60;99.90;;;;;;4984739;28;20042;-72
2023/05/07 00:15:37;;;;;;;64.68;60.10;;;12.60;99.90;;;;;;4986241;28;20030;-72
2023/05/07 00:18:03;;;;;;;68.93;63.88;;;12.60;99.90;;;;;;4984274;28;20048;-72
2023/05/07 00:20:29;;;;;;;67.30;62.05;;;12.60;99.90;;;;;;4983928;28;20074;-72
2023/05/07 00:22:55;;;;;;;67.78;62.78;;;12.50;99.90;;;;;;4981075;28;20053;-72
2023/05/07 00:25:20;;;;;;;65.25;60.28;;;12.50;99.90;;;;;;4985405;28;20425;-72
2023/05/07 00:27:46;;;;;;;65.78;60.88;;;12.50;99.90;;;;;;4974127;28;20054;-72
2023/05/07 00:30:12;;;;;;;65.28;60.17;;;12.50;99.90;;;;;;4984756;28;20050;-72
2023/05/07 00:32:38;;;;;;;65.05;60.20;;;12.40;99.90;;;;;;4985916;28;20078;-72
2023/05/07 00:35:05;;;;;;;69.68;64.43;;;12.50;99.90;;;;;;4968432;28;20572;-72
2023/05/07 00:37:31;;;;;;;65.47;60.42;;;12.40;99.90;;;;;;5000355;28;20042;-72
2023/05/07 00:39:56;;;;;;;69.22;64.25;;;12.40;99.90;;;;;;5001414;28;20485;-72
2023/05/07 00:42:22;;;;;;;69.15;64.10;;;12.30;99.90;;;;;;4980991;28;20043;-72
2023/05/07 00:44:47;;;;;;;70.68;65.30;;;12.30;99.90;;;;;;4984509;28;20392;-73
2023/05/07 00:47:14;;;;;;;68.30;63.15;;;12.30;99.90;;;;;;4962619;28;20038;-73
2023/05/07 00:49:44;;;;;;;69.68;64.25;;;12.30;99.90;;;;;;4986530;28;20046;-73
2023/05/07 00:52:13;;;;;;;78.00;72.00;;;12.30;99.90;;;;;;4985962;28;20042;-73
2023/05/07 00:54:41;;;;;;;72.25;66.78;;;12.20;99.90;;;;;;4968813;28;20121;-73
2023/05/07 00:57:08;;;;;;;67.32;62.10;;;12.20;99.90;;;;;;4985317;28;20042;-72
2023/05/07 00:59:34;;;;;;;76.57;71.18;;;12.20;99.90;;;;;;4983099;28;20479;-73
2023/05/07 01:02:00;;;;;;;71.55;66.05;;;12.20;99.90;;;;;;4984805;28;20065;-73
2023/05/07 01:04:26;;;;;;;74.75;69.07;;;12.10;99.90;;;;;;4984482;28;20050;-72
2023/05/07 01:06:55;;;;;;;73.93;68.28;;;12.10;99.90;;;;;;4968920;28;20446;-73
2023/05/07 01:09:22;;;;;;;69.18;63.85;;;12.10;99.90;;;;;;4984196;28;20045;-73
2023/05/07 01:11:50;;;;;;;70.10;64.65;;;12.00;99.90;;;;;;4984630;28;20043;-72
2023/05/07 01:14:16;;;;;;;64.97;59.88;;;12.00;99.90;;;;;;4985482;28;20394;-73
2023/05/07 01:16:42;;;;;;;75.32;69.28;;;12.00;99.90;;;;;;4981401;28;20043;-73
2023/05/07 01:19:10;;;;;;;74.15;68.55;;;12.00;99.90;;;;;;4984828;28;20517;-73
2023/05/07 01:21:38;;;;;;;69.78;64.07;;;12.00;99.90;;;;;;4985535;28;20108;-73
2023/05/07 01:24:05;;;;;;;81.65;75.50;;;11.90;99.90;;;;;;4984708;28;20050;-73
2023/05/07 01:26:30;;;;;;;76.65;70.63;;;11.90;99.90;;;;;;4984998;28;20124;-73
2023/05/07 01:28:56;;;;;;;86.13;79.88;;;11.90;99.90;;;;;;4984980;28;20133;-73
2023/05/07 01:31:23;;;;;;;79.57;73.78;;;11.90;99.90;;;;;;4985352;28;20046;-73
2023/05/07 01:33:51;;;;;;;62.72;57.78;;;11.90;99.90;;;;;;4984513;28;20038;-73
2023/05/07 01:36:18;;;;;;;69.47;63.55;;;11.80;99.90;;;;;;4984850;28;20074;-74
2023/05/07 01:38:45;;;;;;;69.55;63.75;;;11.80;99.90;;;;;;4988324;28;20368;-74
2023/05/07 01:41:12;;;;;;;72.28;66.45;;;11.80;99.90;;;;;;4988687;28;20081;-73
2023/05/07 01:43:41;;;;;;;65.80;60.33;;;11.70;99.90;;;;;;4988808;28;20046;-73
2023/05/07 01:46:09;;;;;;;67.85;62.30;;;11.70;99.90;;;;;;4972916;28;20095;-73
2023/05/07 01:48:35;;;;;;;67.38;61.85;;;11.70;99.90;;;;;;4986276;28;20046;-73
2023/05/07 01:51:02;;;;;;;66.30;60.63;;;11.70;99.90;;;;;;4983719;28;20046;-74
2023/05/07 01:53:28;;;;;;;68.93;63.33;;;11.70;99.90;;;;;;4987649;28;20081;-74
2023/05/07 01:55:54;;;;;;;67.90;62.08;;;11.60;99.90;;;;;;4987015;28;20447;-74
2023/05/07 01:58:19;;;;;;;72.18;66.53;;;11.60;99.90;;;;;;4984637;28;20101;-74
2023/05/07 02:00:45;;;;;;;78.50;72.38;;;11.60;99.90;;;;;;4988486;28;20485;-74
2023/05/07 02:03:11;;;;;;;85.95;79.30;;;11.60;99.90;;;;;;4987083;28;20093;-74
2023/05/07 02:05:36;;;;;;;69.07;63.60;;;11.50;99.90;;;;;;4988927;28;20356;-74
2023/05/07 02:08:02;;;;;;;71.97;66.32;;;11.50;99.90;;;;;;4986601;28;20046;-74
2023/05/07 02:10:28;;;;;;;70.30;64.65;;;11.50;99.90;;;;;;4987670;28;20038;-74
2023/05/07 02:12:53;;;;;;;74.75;68.80;;;11.40;99.90;;;;;;4980931;28;20061;-74
2023/05/07 02:15:19;;;;;;;78.45;72.22;;;11.40;99.90;;;;;;4988215;28;20537;-73
2023/05/07 02:18:05;;;;;;;75.03;69.00;;;11.40;99.90;;;;;;4988209;28;20038;-74
2023/05/07 02:20:31;;;;;;;75.72;69.38;;;11.40;99.90;;;;;;4984263;28;20097;-74
2023/05/07 02:22:56;;;;;;;77.90;71.65;;;11.40;99.90;;;;;;4986030;28;20461;-74
2023/05/07 02:25:22;;;;;;;83.35;76.72;;;11.30;99.90;;;;;;4979559;28;20042;-74
2023/05/07 02:27:48;;;;;;;68.55;63.08;;;11.30;99.90;;;;;;4987982;28;20104;-73
2023/05/07 02:30:14;;;;;;;80.13;73.70;;;11.30;99.90;;;;;;4988526;28;20418;-74
2023/05/07 02:32:40;;;;;;;81.45;74.65;;;11.30;99.90;;;;;;4985557;28;20039;-73
2023/05/07 02:35:05;;;;;;;72.13;66.35;;;11.30;99.90;;;;;;4970739;28;20045;-74
2023/05/07 02:37:31;;;;;;;86.72;80.10;;;11.20;99.90;;;;;;4992242;28;20108;-73
2023/05/07 02:39:57;;;;;;;76.43;70.10;;;11.20;99.90;;;;;;4986829;28;20078;-73
2023/05/07 02:42:22;;;;;;;94.00;86.68;;;11.20;99.90;;;;;;4987056;28;20046;-73
2023/05/07 02:44:48;;;;;;;82.97;76.35;;;11.20;99.90;;;;;;4986920;28;20461;-73
2023/05/07 02:47:14;;;;;;;85.75;78.80;;;11.20;99.90;;;;;;4987916;28;20501;-74
2023/05/07 02:49:40;;;;;;;101.28;93.57;;;11.20;99.90;;;;;;4986535;28;20153;-74
2023/05/07 02:52:06;;;;;;;100.55;93.13;;;11.10;99.90;;;;;;4971759;28;20042;-73
2023/05/07 02:54:32;;;;;;;100.40;92.72;;;11.10;99.90;;;;;;4984388;28;20070;-73
2023/05/07 02:56:57;;;;;;;107.63;99.53;;;11.10;99.90;;;;;;4981126;28;20084;-73
2023/05/07 02:59:25;;;;;;;103.75;95.80;;;11.10;99.90;;;;;;4983015;28;20040;-73
2023/05/07 03:01:50;;;;;;;105.13;96.97;;;11.10;99.90;;;;;;4986808;28;20062;-74
2023/05/07 03:04:16;;;;;;;102.47;94.80;;;11.10;99.90;;;;;;4986213;28;20754;-74
2023/05/07 03:06:41;;;;;;;106.88;98.65;;;11.10;99.90;;;;;;4987593;28;20038;-74
2023/05/07 03:09:07;;;;;;;91.47;84.20;;;11.10;99.90;;;;;;4986298;28;20050;-74
2023/05/07 03:11:33;;;;;;;102.75;94.75;;;11.10;99.90;;;;;;4986906;28;20042;-73
2023/05/07 03:13:58;;;;;;;97.72;90.00;;;11.00;99.90;;;;;;4987603;28;20038;-74
2023/05/07 03:16:24;;;;;;;105.25;96.68;;;11.00;99.90;;;;;;4985562;28;20109;-73
2023/05/07 03:18:49;;;;;;;110.35;101.85;;;11.00;99.90;;;;;;4986231;28;20046;-74
2023/05/07 03:21:15;;;;;;;110.05;101.65;;;11.00;99.90;;;;;;4987062;28;20054;-74
2023/05/07 03:23:41;;;;;;;105.53;96.95;;;11.00;99.90;;;;;;4987273;28;20486;-73
2023/05/07 03:26:06;;;;;;;109.85;100.55;;;11.00;99.90;;;;;;4968034;28;20050;-73
2023/05/07 03:28:32;;;;;;;108.05;99.10;;;11.00;99.90;;;;;;4984584;28;20046;-73
2023/05/07 03:30:57;;;;;;;95.97;87.88;;;11.00;99.90;;;;;;4986678;28;20150;-74
2023/05/07 03:33:23;;;;;;;111.95;103.07;;;11.00;99.90;;;;;;4985483;28;20034;-73
2023/05/07 03:35:49;;;;;;;89.95;81.93;;;11.00;99.90;;;;;;4988034;28;20116;-74
2023/05/07 03:38:15;;;;;;;104.68;96.20;;;11.00;99.90;;;;;;5011395;28;20031;-72
2023/05/07 03:40:40;;;;;;;105.75;96.88;;;11.00;99.90;;;;;;4974989;28;20049;-73
2023/05/07 03:43:06;;;;;;;100.47;92.05;;;11.00;99.90;;;;;;4984734;28;20049;-73
2023/05/07 03:45:31;;;;;;;101.80;93.40;;;11.00;99.90;;;;;;4975915;28;20129;-73
2023/05/07 03:47:57;;;;;;;101.78;93.45;;;11.00;99.90;;;;;;4985577;28;20126;-73
2023/05/07 03:50:23;;;;;;;97.28;89.10;;;11.00;99.90;;;;;;4987134;28;20582;-73
2023/05/07 03:52:48;;;;;;;103.50;95.10;;;11.00;99.90;;;;;;4985904;28;20049;-74
2023/05/07 03:55:14;;;;;;;93.80;85.65;;;11.00;99.90;;;;;;4985010;28;20049;-74
2023/05/07 03:57:39;;;;;;;93.15;84.70;;;11.00;99.90;;;;;;4969793;28;20057;-73
2023/05/07 04:00:06;;;;;;;106.43;97.90;;;11.00;99.90;;;;;;4985726;28;20133;-73
2023/05/07 04:02:33;;;;;;;88.28;80.72;;;11.00;99.90;;;;;;4985836;28;20490;-72
2023/05/07 04:04:59;;;;;;;92.32;84.47;;;11.00;99.90;;;;;;4984143;28;20104;-73
2023/05/07 04:07:24;;;;;;;88.82;81.03;;;11.00;99.90;;;;;;4986763;28;20545;-73
2023/05/07 04:09:50;;;;;;;87.10;79.80;;;11.00;99.90;;;;;;4984832;28;20053;-73
2023/05/07 04:12:16;;;;;;;87.93;79.43;;;11.00;99.90;;;;;;4985733;28;20513;-73
2023/05/07 04:14:41;;;;;;;90.25;82.05;;;11.00;99.90;;;;;;4985465;28;20417;-73
2023/05/07 04:17:09;;;;;;;91.90;83.75;;;11.00;99.90;;;;;;4985858;28;20038;-73
2023/05/07 04:19:35;;;;;;;89.13;81.38;;;11.00;99.90;;;;;;4985455;28;20070;-73
2023/05/07 04:22:00;;;;;;;91.10;82.88;;;11.00;99.90;;;;;;4986941;28;20131;-73
2023/05/07 04:24:26;;;;;;;83.50;75.97;;;11.00;99.90;;;;;;4969863;28;20042;-74
2023/05/07 04:26:52;;;;;;;87.28;79.53;;;11.00;99.90;;;;;;4989407;28;20087;-73
2023/05/07 04:29:18;;;;;;;82.10;74.63;;;11.00;99.90;;;;;;4984549;28;20047;-72
2023/05/07 04:31:44;;;;;;;75.60;68.28;;;10.90;99.90;;;;;;4986515;28;20034;-73
2023/05/07 04:34:10;;;;;;;73.35;66.43;;;11.00;99.90;;;;;;4986225;28;20501;-73
2023/05/07 04:36:38;;;;;;;74.15;67.15;;;10.90;99.90;;;;;;4988404;28;20568;-73
2023/05/07 04:39:04;;;;;;;76.88;69.50;;;10.90;99.90;;;;;;4969781;28;20039;-73
2023/05/07 04:41:30;;;;;;;74.10;66.82;;;10.90;99.90;;;;;;4986676;28;20507;-73
2023/05/07 04:43:56;;;;;;;86.35;78.47;;;10.90;99.90;;;;;;4984708;28;20043;-73
2023/05/07 04:46:23;;;;;;;79.18;71.57;;;10.90;99.90;;;;;;4985679;28;20038;-72
2023/05/07 04:48:49;;;;;;;87.25;79.35;;;10.90;99.90;;;;;;4983757;28;20105;-73
2023/05/07 04:51:15;;;;;;;84.30;76.10;;;10.90;99.90;;;;;;4984079;28;20148;-73
2023/05/07 04:53:40;;;;;;;72.82;65.68;;;10.90;99.90;;;;;;4985361;28;20026;-73
2023/05/07 04:56:06;;;;;;;78.13;70.75;;;10.90;99.90;;;;;;4985260;28;20140;-73
2023/05/07 04:58:32;;;;;;;87.53;80.00;;;10.90;99.90;;;;;;4969841;28;20436;-73
2023/05/07 05:00:58;;;;;;;90.50;82.80;;;10.90;99.90;;;;;;4981644;28;20054;-73
2023/05/07 05:03:24;;;;;;;72.85;65.85;;;10.90;99.90;;;;;;4983285;28;20050;-73
2023/05/07 05:05:51;;;;;;;80.30;73.07;;;10.90;99.90;;;;;;4986444;28;20100;-73
2023/05/07 05:08:17;;;;;;;65.88;58.90;;;10.90;99.90;;;;;;4983530;28;20042;-73
2023/05/07 05:10:43;;;;;;;73.07;66.10;;;10.90;99.90;;;;;;4976123;28;20125;-73
2023/05/07 05:13:09;;;;;;;75.50;68.55;;;10.90;99.90;;;;;;4988897;28;20120;-73
2023/05/07 05:15:35;;;;;;;71.63;65.28;;;10.90;99.90;;;;;;4989737;28;20403;-72
2023/05/07 05:18:01;;;;;;;65.82;60.08;;;10.90;99.90;;;;;;4990256;28;20045;-74
2023/05/07 05:20:26;;;;;;;66.45;60.15;;;10.90;99.90;;;;;;4986245;28;20057;-73
2023/05/07 05:22:52;;;;;;;73.07;66.57;;;10.90;99.90;;;;;;4990421;28;20049;-73
2023/05/07 05:25:17;;;;;;;68.93;62.40;;;10.90;99.90;;;;;;4991619;28;20421;-72
2023/05/07 05:27:43;;;;;;;65.22;58.92;;;10.90;99.90;;;;;;4989766;28;20129;-73
2023/05/07 05:30:09;;;;;;;66.07;59.88;;;10.90;99.90;;;;;;4972285;28;20410;-73
2023/05/07 05:32:35;;;;;;;67.32;60.60;;;10.90;99.90;;;;;;5001431;28;20129;-73
2023/05/07 05:35:00;;;;;;;58.83;53.17;;;10.90;99.90;;;;;;4989098;28;20542;-73
2023/05/07 05:37:26;;;;;;;64.38;58.35;;;10.90;99.90;;;;;;4989483;28;20046;-73
2023/05/07 05:39:52;;;;;;;68.10;61.60;;;10.90;99.90;;;;;;4988991;28;20406;-73
2023/05/07 05:42:18;;;;;;;61.65;55.72;;;10.90;99.90;;;;;;4984982;28;20051;-73
2023/05/07 05:44:43;;;;;;;59.15;53.67;;;10.90;99.90;;;;;;4987023;28;20046;-73
2023/05/07 05:47:09;;;;;;;61.88;56.05;;;10.90;99.90;;;;;;4989039;28;20141;-73
2023/05/07 05:49:35;;;;;;;57.25;51.78;;;10.90;99.90;;;;;;4988716;28;20046;-72
2023/05/07 05:52:00;;;;;;;57.35;52.22;;;10.90;99.90;;;;;;4982313;28;20085;-72
2023/05/07 05:54:26;;;;;;;57.35;51.80;;;10.90;99.90;;;;;;4987199;28;20038;-73
2023/05/07 05:56:51;;;;;;;59.63;54.20;;;10.90;99.90;;;;;;4989423;28;20129;-73
2023/05/07 05:59:17;;;;;;;59.28;53.50;;;10.90;99.90;;;;;;4987658;28;20042;-72
2023/05/07 06:01:43;;;;;;;59.15;53.58;;;10.90;99.90;;;;;;4986985;28;20058;-73
2023/05/07 06:04:08;;;;;;;59.90;54.35;;;11.00;99.90;;;;;;4987359;28;20042;-73
2023/05/07 06:06:34;;;;;;;49.78;45.58;;;11.00;99.90;;;;;;4987578;28;20050;-71
2023/05/07 06:09:00;;;;;;;51.42;46.60;;;11.10;99.90;;;;;;4976307;28;20080;-72
2023/05/07 06:11:25;;;;;;;56.35;51.17;;;11.10;99.90;;;;;;4987477;28;20047;-73
2023/05/07 06:13:51;;;;;;;49.75;45.35;;;11.10;99.90;;;;;;4986667;28;20053;-71
2023/05/07 06:16:16;;;;;;;57.53;51.95;;;11.10;99.90;;;;;;4988154;28;20038;-73
2023/05/07 06:18:42;;;;;;;53.35;48.13;;;11.10;99.90;;;;;;4987538;28;20038;-73
2023/05/07 06:21:08;;;;;;;61.85;56.25;;;11.20;99.90;;;;;;4988677;28;20042;-73
2023/05/07 06:23:33;;;;;;;65.43;59.58;;;11.20;99.90;;;;;;4978282;28;20046;-73
2023/05/07 06:25:59;;;;;;;65.45;59.85;;;11.30;99.90;;;;;;4992666;28;20468;-73
2023/05/07 06:28:25;;;;;;;59.85;54.65;;;11.30;99.90;;;;;;4971897;28;20645;-73
2023/05/07 06:30:50;;;;;;;64.00;58.78;;;11.30;99.90;;;;;;4987377;28;20042;-73
2023/05/07 06:33:16;;;;;;;61.03;55.88;;;11.40;99.90;;;;;;4986960;28;20133;-72
2023/05/07 06:35:41;;;;;;;58.80;53.50;;;11.50;99.90;;;;;;4962559;28;20039;-72
2023/05/07 06:38:07;;;;;;;55.22;50.55;;;11.50;99.90;;;;;;4988072;28;20133;-72
2023/05/07 06:40:33;;;;;;;56.95;51.95;;;11.50;99.90;;;;;;4987063;28;20513;-72
2023/05/07 06:42:58;;;;;;;49.92;45.35;;;11.60;99.90;;;;;;4971447;28;20050;-72
2023/05/07 06:45:25;;;;;;;57.90;52.70;;;11.70;99.90;;;;;;4982297;28;20051;-72
2023/05/07 06:47:50;;;;;;;52.42;47.58;;;11.80;99.90;;;;;;4986410;28;20062;-72
2023/05/07 06:50:16;;;;;;;51.35;46.42;;;11.90;99.90;;;;;;4969316;28;20462;-72
2023/05/07 06:52:42;;;;;;;50.03;45.47;;;11.90;99.90;;;;;;4982869;28;20046;-73
2023/05/07 06:55:09;;;;;;;49.45;44.85;;;11.90;99.90;;;;;;4986897;28;20042;-72
2023/05/07 06:57:34;;;;;;;46.78;42.28;;;12.00;99.90;;;;;;4986753;28;20040;-72
2023/05/07 07:00:00;;;;;;;47.25;42.95;;;12.00;99.90;;;;;;4987380;28;20038;-71
2023/05/07 07:02:25;;;;;;;44.92;40.75;;;11.90;99.90;;;;;;4985473;28;20038;-72
2023/05/07 07:04:51;;;;;;;45.70;41.53;;;11.90;99.90;;;;;;4985726;28;20042;-72
2023/05/07 07:07:17;;;;;;;45.83;41.45;;;11.90;99.90;;;;;;4987515;28;20046;-72
2023/05/07 07:09:42;;;;;;;47.20;42.70;;;11.90;99.90;;;;;;4972649;28;20050;-72
2023/05/07 07:12:08;;;;;;;46.28;42.20;;;11.90;99.90;;;;;;4984611;28;20046;-72
2023/05/07 07:14:33;;;;;;;48.30;43.83;;;11.90;99.90;;;;;;4986243;28;20069;-72
2023/05/07 07:16:59;;;;;;;46.55;42.25;;;12.00;99.90;;;;;;4966467;28;20038;-72
2023/05/07 07:19:26;;;;;;;47.70;43.13;;;11.90;99.90;;;;;;4983878;28;20473;-71
2023/05/07 07:21:51;;;;;;;45.92;41.70;;;12.00;99.90;;;;;;4967762;28;20050;-73
2023/05/07 07:24:20;;;;;;;45.38;40.92;;;12.00;99.90;;;;;;4980681;28;20054;-72
2023/05/07 07:26:46;;;;;;;46.15;41.85;;;12.10;99.90;;;;;;4997978;28;20034;-72
2023/05/07 07:29:12;;;;;;;45.67;41.50;;;12.00;99.90;;;;;;4980994;28;20449;-72
2023/05/07 07:31:37;;;;;;;43.58;39.72;;;12.10;99.90;;;;;;4981164;28;20069;-72
2023/05/07 07:34:03;;;;;;;46.28;41.90;;;12.10;99.90;;;;;;4979950;28;20491;-72
2023/05/07 07:36:29;;;;;;;47.25;42.72;;;12.10;99.90;;;;;;4979593;28;20038;-72
2023/05/07 07:38:55;;;;;;;47.03;42.72;;;12.10;99.90;;;;;;4997678;28;20423;-72
2023/05/07 07:41:21;;;;;;;48.10;43.70;;;12.10;99.90;;;;;;4983958;28;20042;-72
2023/05/07 07:43:47;;;;;;;47.92;43.47;;;12.10;99.90;;;;;;4979915;28;20050;-72
2023/05/07 07:46:12;;;;;;;47.45;43.25;;;12.10;99.90;;;;;;4980452;28;20046;-72
2023/05/07 07:48:38;;;;;;;47.22;42.88;;;12.20;99.90;;;;;;4986158;28;20054;-72
2023/05/07 07:51:04;;;;;;;45.65;41.42;;;12.20;99.90;;;;;;4985521;28;20057;-72
2023/05/07 07:53:30;;;;;;;45.03;41.03;;;12.30;99.90;;;;;;4970181;28;20442;-72
2023/05/07 07:55:58;;;;;;;45.00;40.80;;;12.30;99.90;;;;;;4984482;28;20350;-72
2023/05/07 07:58:24;;;;;;;46.80;42.38;;;12.40;99.90;;;;;;4965522;28;20061;-72
2023/05/07 08:00:50;;;;;;;48.25;43.92;;;12.40;99.90;;;;;;4980128;28;20058;-73
2023/05/07 08:03:16;;;;;;;47.38;43.25;;;12.40;99.90;;;;;;4983611;28;20045;-72
2023/05/07 08:05:42;;;;;;;48.05;43.75;;;12.40;99.90;;;;;;4981326;28;20051;-73
2023/05/07 08:08:08;;;;;;;46.40;42.22;;;12.50;99.90;;;;;;4984913;28;20034;-72
2023/05/07 08:10:38;;;;;;;49.42;44.60;;;12.50;99.90;;;;;;4986045;28;20073;-72
2023/05/07 08:13:04;;;;;;;45.17;40.97;;;12.60;99.90;;;;;;4978509;28;20391;-73
2023/05/07 08:15:30;;;;;;;44.90;40.22;;;12.60;99.90;;;;;;4987174;28;20137;-72
2023/05/07 08:17:57;;;;;;;44.67;40.53;;;12.70;99.90;;;;;;4987279;28;20113;-72
2023/05/07 08:20:23;;;;;;;46.55;42.00;;;12.80;99.90;;;;;;4983125;28;20466;-72
2023/05/07 08:22:49;;;;;;;44.30;39.72;;;13.00;99.90;;;;;;4987803;28;20049;-72
2023/05/07 08:25:14;;;;;;;42.33;38.10;;;13.20;99.90;;;;;;4985603;28;20403;-72
2023/05/07 08:27:40;;;;;;;42.17;37.97;;;13.30;99.90;;;;;;4986894;28;20100;-72
2023/05/07 08:30:06;;;;;;;42.45;38.42;;;13.30;99.90;;;;;;4986366;28;20463;-73
2023/05/07 08:32:32;;;;;;;42.88;38.88;;;13.40;99.90;;;;;;4985802;28;20049;-73
2023/05/07 08:34:57;;;;;;;42.55;38.45;;;13.50;99.90;;;;;;4987014;28;20491;-73
2023/05/07 08:37:23;;;;;;;41.00;36.83;;;13.50;99.90;;;;;;4985439;28;20049;-72
2023/05/07 08:39:49;;;;;;;41.15;37.20;;;13.60;99.90;;;;;;4986208;28;20389;-72
2023/05/07 08:42:17;;;;;;;43.58;39.50;;;13.70;99.90;;;;;;4970615;28;20105;-73
2023/05/07 08:44:46;;;;;;;39.30;35.35;;;13.80;99.90;;;;;;4986587;28;20077;-73
2023/05/07 08:47:12;;;;;;;43.80;39.42;;;13.90;99.90;;;;;;4973910;28;20096;-73
2023/05/07 08:49:38;;;;;;;42.10;37.75;;;13.90;99.90;;;;;;4990664;28;20046;-72
2023/05/07 08:52:04;;;;;;;42.30;38.20;;;14.00;99.90;;;;;;4989983;28;20046;-72
2023/05/07 08:54:31;;;;;;;38.47;34.78;;;14.20;99.90;;;;;;4990371;28;20578;-73
2023/05/07 08:56:56;;;;;;;40.47;36.47;;;14.30;99.90;;;;;;4989885;28;20038;-73
2023/05/07 08:59:22;;;;;;;39.25;35.20;;;14.40;99.90;;;;;;4990767;28;20054;-73
2023/05/07 09:01:48;;;;;;;40.55;36.65;;;14.40;99.90;;;;;;4990443;28;20108;-72
2023/05/07 09:04:14;;;;;;;43.03;38.95;;;14.50;99.90;;;;;;4974161;28;20042;-73
2023/05/07 09:06:41;;;;;;;38.97;35.15;;;14.70;99.90;;;;;;4972482;28;20041;-73
2023/05/07 09:09:07;;;;;;;41.53;37.72;;;14.90;99.90;;;;;;4974371;28;20117;-73
2023/05/07 09:11:33;;;;;;;42.05;38.03;;;15.00;99.90;;;;;;4991229;28;20057;-72
2023/05/07 09:14:01;;;;;;;44.20;40.03;;;15.20;99.90;;;;;;4989242;28;20035;-72
2023/05/07 09:16:28;;;;;;;38.83;35.03;;;15.40;99.90;;;;;;4990528;28;20121;-72
2023/05/07 09:18:55;;;;;;;47.88;43.83;;;15.40;99.90;;;;;;4989665;28;20398;-73
2023/05/07 09:21:22;;;;;;;38.75;34.85;;;15.40;99.90;;;;;;4974566;28;20268;-74
2023/05/07 09:23:52;;;;;;;38.28;34.67;;;15.50;99.90;;;;;;4990070;28;20383;-73
2023/05/07 09:26:20;;;;;;;38.22;34.45;;;15.50;99.90;;;;;;4989219;28;20124;-73
2023/05/07 09:28:46;;;;;;;38.83;34.95;;;15.50;99.90;;;;;;5001834;28;20046;-73
2023/05/07 09:31:12;;;;;;;36.33;32.85;;;15.40;99.90;;;;;;4990093;28;20048;-73
2023/05/07 09:33:38;;;;;;;35.63;32.22;;;15.40;99.90;;;;;;4983035;28;20042;-73
2023/05/07 09:36:09;;;;;;;37.78;34.25;;;15.50;99.90;;;;;;4989585;28;20034;-73
2023/05/07 09:38:37;;;;;;;38.80;35.10;;;15.70;99.90;;;;;;4995892;28;20055;-73
2023/05/07 09:41:08;;;;;;;38.90;35.30;;;15.70;99.90;;;;;;4988667;28;20074;-73
2023/05/07 09:43:37;;;;;;;62.00;57.60;;;15.90;99.90;;;;;;4990354;28;20418;-73
2023/05/07 09:46:06;;;;;;;65.78;61.13;;;16.00;99.90;;;;;;4988853;28;20383;-73
2023/05/07 09:48:35;;;;;;;59.22;54.97;;;16.00;99.90;;;;;;5006088;28;20073;-73
2023/05/07 09:51:06;;;;;;;43.17;39.58;;;15.80;99.90;;;;;;4988697;28;20061;-73
2023/05/07 09:53:33;;;;;;;37.72;34.33;;;15.90;99.90;;;;;;4989885;28;20631;-73
2023/05/07 09:55:59;;;;;;;40.55;36.83;;;16.00;99.90;;;;;;4988981;28;20048;-73
2023/05/07 09:58:26;;;;;;;45.88;42.22;;;16.20;99.90;;;;;;4988621;28;20041;-73
2023/05/07 10:00:52;;;;;;;69.88;65.32;;;16.30;99.90;;;;;;4989116;28;20054;-73
2023/05/07 10:03:20;;;;;;;76.82;72.13;;;16.40;99.90;;;;;;4988918;28;20089;-73
2023/05/07 10:05:47;;;;;;;84.80;79.78;;;16.60;99.90;;;;;;4994322;28;20050;-73
2023/05/07 10:08:13;;;;;;;129.65;122.90;;;16.80;99.90;;;;;;4989562;28;20038;-73
2023/05/07 10:10:40;;;;;;;138.38;131.00;;;17.00;99.90;;;;;;4986056;28;20474;-72
2023/05/07 10:13:10;;;;;;;147.75;140.15;;;17.10;99.90;;;;;;4981254;28;20558;-73
2023/05/07 10:15:36;;;;;;;152.23;144.40;;;17.10;99.90;;;;;;4988877;28;20160;-74
2023/05/07 10:18:06;;;;;;;172.98;164.32;;;17.10;99.90;;;;;;4989666;28;20576;-73
2023/05/07 10:20:33;;;;;;;183.15;174.15;;;17.20;99.90;;;;;;4977893;28;20451;-73
2023/05/07 10:23:00;;;;;;;174.38;165.35;;;17.30;99.90;;;;;;4989460;28;20081;-73
2023/05/07 10:25:29;;;;;;;177.63;168.77;;;17.20;99.90;;;;;;5003638;28;20038;-73
2023/05/07 10:27:59;;;;;;;168.98;160.52;;;17.20;99.90;;;;;;5006193;28;20069;-73
2023/05/07 10:30:43;;;;;;;187.25;178.10;;;17.10;99.90;;;;;;4987562;28;20418;-73
2023/05/07 10:33:11;;;;;;;158.80;150.70;;;17.20;99.90;;;;;;4981571;28;20038;-72
2023/05/07 10:35:46;;;;;;;169.60;160.88;;;17.30;99.90;;;;;;4988855;28;20046;-73
2023/05/07 10:38:12;;;;;;;170.38;161.73;;;17.40;99.90;;;;;;4994669;28;20062;-73
2023/05/07 10:40:37;;;;;;;169.20;160.88;;;17.50;99.90;;;;;;4985464;28;20119;-73
2023/05/07 10:43:05;;;;;;;152.60;144.93;;;17.60;99.90;;;;;;4989021;28;20046;-73
2023/05/07 10:45:31;;;;;;;214.38;204.00;;;17.50;99.90;;;;;;4989019;28;20482;-73
2023/05/07 10:48:16;;;;;;;132.80;126.05;;;17.50;99.90;;;;;;4988249;28;20041;-73
2023/05/07 10:50:43;;;;;;;128.98;122.35;;;17.70;99.90;;;;;;4989625;28;20124;-74
2023/05/07 10:53:18;;;;;;;167.23;158.77;;;17.60;99.90;;;;;;4987987;28;20034;-73
2023/05/07 10:55:52;;;;;;;163.60;155.48;;;17.50;99.90;;;;;;4988730;28;20038;-73
2023/05/07 10:58:31;;;;;;;146.55;139.07;;;17.70;99.90;;;;;;4988148;28;20043;-73
2023/05/07 11:00:56;;;;;;;147.95;140.32;;;17.90;99.90;;;;;;4987971;28;20060;-73
2023/05/07 11:03:22;;;;;;;163.20;155.18;;;17.90;99.90;;;;;;4988495;28;20050;-73
2023/05/07 11:06:10;;;;;;;167.25;159.05;;;17.80;99.90;;;;;;4990225;28;20073;-73
2023/05/07 11:08:55;;;;;;;140.38;133.05;;;17.70;99.90;;;;;;4970426;28;20461;-72
2023/05/07 11:11:47;;;;;;;147.60;139.98;;;17.60;99.90;;;;;;4985976;28;20046;-72
2023/05/07 11:14:14;;;;;;;186.60;177.32;;;17.80;99.90;;;;;;5003290;28;20129;-72
2023/05/07 11:16:41;;;;;;;257.10;244.77;;;18.00;99.90;;;;;;4987519;28;20046;-72
2023/05/07 11:19:07;;;;;;;122.93;116.50;;;18.30;99.90;;;;;;4975744;28;20054;-72
2023/05/07 11:21:36;;;;;;;112.55;106.60;;;18.50;99.90;;;;;;4972615;28;20528;-73
2023/05/07 11:24:03;;;;;;;259.48;247.32;;;18.60;99.90;;;;;;4988141;28;20495;-73
2023/05/07 11:26:31;;;;;;;151.23;143.65;;;18.80;99.90;;;;;;4971913;28;20042;-73
2023/05/07 11:28:57;;;;;;;94.80;89.70;;;19.20;99.90;;;;;;4979507;28;20525;-71
2023/05/07 11:31:29;;;;;;;157.07;149.23;;;19.40;99.90;;;;;;4987922;28;20477;-72
2023/05/07 11:33:55;;;;;;;164.73;156.50;;;19.20;99.90;;;;;;4987336;28;20050;-73
2023/05/07 11:36:23;;;;;;;91.85;86.90;;;19.10;99.90;;;;;;4988109;28;20402;-73
2023/05/07 11:38:48;;;;;;;183.20;174.40;;;19.00;99.90;;;;;;4993505;28;20061;-73
2023/05/07 11:41:16;;;;;;;160.05;152.00;;;18.80;99.90;;;;;;4987305;28;20229;-73
2023/05/07 11:43:58;;;;;;;158.93;151.07;;;18.90;99.90;;;;;;4986517;28;20100;-72
2023/05/07 11:46:24;;;;;;;176.70;168.23;;;19.10;99.90;;;;;;4985631;28;20050;-73
2023/05/07 11:48:49;;;;;;;104.70;99.03;;;19.40;99.90;;;;;;4970422;28;20049;-72
2023/05/07 11:51:20;;;;;;;86.43;81.70;;;19.70;99.90;;;;;;4972287;28;21332;-73
2023/05/07 11:53:45;;;;;;;92.28;87.32;;;19.70;99.90;;;;;;4987684;28;20519;-73
2023/05/07 11:56:13;;;;;;;95.85;90.93;;;19.60;99.90;;;;;;4986984;28;20038;-72
2023/05/07 11:58:40;;;;;;;125.25;118.93;;;19.50;99.90;;;;;;4970353;28;20046;-73
2023/05/07 12:01:08;;;;;;;133.48;126.78;;;19.40;99.90;;;;;;4986706;28;20077;-72
2023/05/07 12:03:42;;;;;;;100.45;95.10;;;19.30;99.90;;;;;;4979618;28;20074;-72
2023/05/07 12:06:08;;;;;;;87.57;82.90;;;19.30;99.90;;;;;;4981645;28;20149;-72
2023/05/07 12:08:37;;;;;;;96.88;91.82;;;19.40;99.90;;;;;;4983881;28;20074;-73
2023/05/07 12:11:06;;;;;;;93.55;88.53;;;19.50;99.90;;;;;;4987808;28;20054;-72
2023/05/07 12:13:32;;;;;;;75.65;71.32;;;19.70;99.90;;;;;;4987158;28;20050;-73
2023/05/07 12:15:58;;;;;;;83.05;78.45;;;20.10;99.90;;;;;;4986213;28;20172;-73
2023/05/07 12:18:24;;;;;;;89.35;84.60;;;20.50;99.90;;;;;;4986944;28;20121;-73
2023/05/07 12:20:50;;;;;;;75.82;71.57;;;20.80;99.90;;;;;;4986315;28;20169;-72